Herndon, Pennsylvania
Current Conditions -  °F | °C
As of 10:53 AM on Saturday 25 Oct 2014 (Local Time) from KSEG Reporting Station
Broken Clouds Broken Clouds  
Wind Chill: 57°   Ceiling: 5000
Heat Index: 57°   Visibility: 10mi
Dew Point: 43°   Wind: 5mph
Humidity: 59%   Direction: 190°S
Pressure: 29.88"   Gusts: NA
Location:  40.71°N, 76.84°W
Report Text: KSEG 251453Z AUTO 19004KT 10SM BKN050 14/06 A2988 RMK AO2 SLP119 T01390061 58015
Loading
Personal Weather Stations






























Interactive Weather Map
Tropical Storm Tracking
New forecast layout! Learn more

10-Day Weather Forecast

Advertisements
Track Severe Weather on mobile